createdAt,value
2019-06-01T00:00:49.627Z,0.80
2019-06-01T00:03:18.524Z,0.90
2019-06-01T00:05:48.460Z,1.00
2019-06-01T00:08:17.615Z,0.97
2019-06-01T00:10:47.705Z,0.70
2019-06-01T00:13:16.802Z,1.07
2019-06-01T00:15:46.113Z,1.00
2019-06-01T00:18:14.994Z,0.70
2019-06-01T00:20:44.293Z,0.90
2019-06-01T00:23:13.242Z,1.23
2019-06-01T00:25:42.603Z,1.07
2019-06-01T00:28:11.627Z,0.83
2019-06-01T00:30:41.600Z,0.70
2019-06-01T00:33:10.570Z,0.90
2019-06-01T00:35:39.439Z,0.97
2019-06-01T00:38:08.342Z,1.17
2019-06-01T00:40:37.613Z,0.77
2019-06-01T00:43:06.535Z,0.80
2019-06-01T00:45:35.353Z,0.60
2019-06-01T00:48:04.207Z,0.80
2019-06-01T00:50:33.364Z,0.60
2019-06-01T00:53:02.213Z,0.70
2019-06-01T00:55:31.098Z,0.97
2019-06-01T00:58:00.027Z,0.60
2019-06-01T01:00:42.855Z,0.60
2019-06-01T01:02:59.537Z,0.60
2019-06-01T01:05:28.640Z,0.60
2019-06-01T01:07:57.487Z,1.07
2019-06-01T01:10:26.397Z,0.60
2019-06-01T01:13:12.834Z,0.50
2019-06-01T01:15:41.771Z,0.97
2019-06-01T01:18:12.382Z,1.10
2019-06-01T01:20:41.638Z,1.40
2019-06-01T01:23:20.871Z,0.90
2019-06-01T01:25:50.498Z,1.30
2019-06-01T01:28:19.534Z,1.10
2019-06-01T01:31:02.969Z,1.00
2019-06-01T01:33:18.977Z,1.00
2019-06-01T01:35:47.795Z,0.93
2019-06-01T01:38:16.665Z,0.70
2019-06-01T01:40:45.551Z,0.80
2019-06-01T01:43:25.798Z,0.77
2019-06-01T01:45:54.858Z,0.87
2019-06-01T01:48:23.732Z,0.57
2019-06-01T01:50:52.589Z,0.63
2019-06-01T01:53:21.551Z,0.90
2019-06-01T01:55:50.943Z,0.70
2019-06-01T01:58:19.941Z,0.83
2019-06-01T02:00:49.995Z,0.50
2019-06-01T02:06:06.668Z,0.80
2019-06-01T02:08:35.529Z,0.70
2019-06-01T02:11:04.409Z,0.83
2019-06-01T02:13:33.318Z,0.87
2019-06-01T02:16:02.654Z,0.60
2019-06-01T02:18:31.686Z,1.10
2019-06-01T02:21:00.578Z,0.53
2019-06-01T02:23:29.469Z,0.90
2019-06-01T02:25:58.898Z,0.90
2019-06-01T02:28:27.974Z,0.73
2019-06-01T02:30:57.915Z,0.57
2019-06-01T02:33:26.880Z,0.77
2019-06-01T02:35:56.302Z,1.00
2019-06-01T02:38:25.254Z,0.80
2019-06-01T02:40:54.839Z,1.00
2019-06-01T02:43:24.279Z,0.83
2019-06-01T02:45:53.148Z,0.70
2019-06-01T02:48:22.006Z,0.50
2019-06-01T02:50:50.921Z,1.20
2019-06-01T02:53:19.790Z,0.90
2019-06-01T02:55:48.628Z,1.20
2019-06-01T02:58:17.536Z,0.80
2019-06-01T03:00:49.371Z,1.40
2019-06-01T03:03:18.969Z,1.17
2019-06-01T03:05:48.772Z,1.10
2019-06-01T03:08:19.075Z,2.13
2019-06-01T03:10:49.845Z,1.60
2019-06-01T03:13:21.822Z,1.30
2019-06-01T03:15:53.672Z,1.20
2019-06-01T03:18:26.031Z,0.80
2019-06-01T03:20:57.148Z,0.93
2019-06-01T03:23:27.581Z,0.70
2019-06-01T03:25:56.965Z,0.70
2019-06-01T03:28:27.343Z,0.90
2019-06-01T03:30:56.224Z,0.60
2019-06-01T03:33:25.250Z,0.80
2019-06-01T03:35:54.066Z,0.90
2019-06-01T03:38:23.164Z,1.17
2019-06-01T03:40:52.308Z,1.00
2019-06-01T03:43:22.853Z,1.37
2019-06-01T03:45:51.744Z,1.10
2019-06-01T03:48:20.772Z,1.03
2019-06-01T03:50:49.643Z,1.00
2019-06-01T03:53:18.505Z,0.80
2019-06-01T03:55:47.375Z,0.80
2019-06-01T03:58:16.260Z,0.83
2019-06-01T04:00:45.198Z,1.03
2019-06-01T04:03:14.066Z,1.07
2019-06-01T04:05:42.925Z,1.00
2019-06-01T04:08:15.056Z,1.63
2019-06-01T04:10:43.919Z,1.70
2019-06-01T04:13:12.762Z,1.17
2019-06-01T04:15:41.670Z,1.30
2019-06-01T04:18:10.583Z,1.33
2019-06-01T04:23:27.278Z,0.80
2019-06-01T04:25:56.143Z,0.70
2019-06-01T04:28:25.144Z,0.60
2019-06-01T04:30:54.051Z,0.70
2019-06-01T04:33:22.934Z,0.50
2019-06-01T04:35:51.862Z,0.50
2019-06-01T04:38:20.778Z,0.77
2019-06-01T04:40:49.655Z,0.63
2019-06-01T04:43:18.563Z,0.90
2019-06-01T04:45:47.427Z,0.80
2019-06-01T04:48:16.316Z,0.80
2019-06-01T04:50:45.219Z,0.80
2019-06-01T04:53:15.103Z,0.93
2019-06-01T04:55:44.110Z,0.80
2019-06-01T04:58:13.156Z,0.60
2019-06-01T05:00:42.042Z,0.70
2019-06-01T05:03:12.006Z,0.83
2019-06-01T05:05:41.387Z,0.70
2019-06-01T05:08:12.603Z,0.80
2019-06-01T05:10:40.752Z,0.80
2019-06-01T05:13:09.697Z,0.83
2019-06-01T05:15:38.565Z,0.90
2019-06-01T05:18:07.972Z,0.87
2019-06-01T05:20:37.038Z,0.70
2019-06-01T05:23:06.844Z,0.73
2019-06-01T05:25:37.182Z,0.93
2019-06-01T05:28:07.080Z,0.80
2019-06-01T05:30:35.964Z,0.80
2019-06-01T05:33:18.519Z,0.73
2019-06-01T05:35:35.734Z,0.90
2019-06-01T05:38:04.615Z,0.90
2019-06-01T05:40:33.468Z,0.97
2019-06-01T05:43:02.420Z,0.70
2019-06-01T05:45:31.339Z,0.67
2019-06-01T05:48:00.215Z,0.60
2019-06-01T05:50:29.098Z,0.50
2019-06-01T05:52:57.966Z,0.77
2019-06-01T05:55:26.882Z,0.80
2019-06-01T05:57:55.797Z,1.33
2019-06-01T06:00:39.900Z,0.60
2019-06-01T06:03:08.809Z,1.47
2019-06-01T06:05:39.244Z,1.00
2019-06-01T06:08:08.114Z,0.73
2019-06-01T06:10:37.152Z,0.80
2019-06-01T06:13:06.093Z,0.60
2019-06-01T06:15:34.963Z,0.63
2019-06-01T06:18:03.936Z,1.10
2019-06-01T06:20:32.819Z,0.63
2019-06-01T06:23:01.700Z,0.60
2019-06-01T06:25:33.291Z,0.50
2019-06-01T06:28:01.993Z,0.60
2019-06-01T06:30:30.956Z,1.30
2019-06-01T06:32:59.869Z,0.63
2019-06-01T06:35:28.757Z,0.50
2019-06-01T06:37:57.639Z,0.97
2019-06-01T06:40:26.525Z,1.20
2019-06-01T06:42:55.390Z,0.90
2019-06-01T06:45:24.949Z,0.70
2019-06-01T06:47:54.089Z,1.30
2019-06-01T06:50:23.593Z,1.47
2019-06-01T06:52:52.630Z,1.47
2019-06-01T06:55:21.999Z,0.93
2019-06-01T06:57:51.025Z,0.97
2019-06-01T07:00:20.635Z,1.00
2019-06-01T07:02:51.122Z,0.80
2019-06-01T07:05:21.229Z,0.70
2019-06-01T07:07:51.850Z,0.80
2019-06-01T07:10:21.889Z,0.60
2019-06-01T07:12:50.991Z,0.83
2019-06-01T07:15:19.957Z,1.00
2019-06-01T07:17:48.844Z,1.13
2019-06-01T07:20:29.532Z,0.70
2019-06-01T07:22:58.537Z,0.90
2019-06-01T07:25:27.433Z,0.80
2019-06-01T07:27:56.540Z,0.80
2019-06-01T07:30:49.860Z,0.80
2019-06-01T07:33:04.887Z,0.80
2019-06-01T07:35:33.764Z,1.20
2019-06-01T07:38:03.635Z,1.23
2019-06-01T07:40:33.047Z,0.57
2019-06-01T07:43:02.060Z,0.43
2019-06-01T07:45:33.568Z,1.03
2019-06-01T07:48:01.723Z,0.80
2019-06-01T07:50:32.233Z,1.50
2019-06-01T07:53:01.142Z,0.40
2019-06-01T07:55:30.059Z,0.60
2019-06-01T07:57:58.946Z,1.20
2019-06-01T08:00:28.908Z,1.27
2019-06-01T08:02:57.907Z,0.90
2019-06-01T08:05:27.958Z,0.60
2019-06-01T08:07:57.002Z,0.87
2019-06-01T08:10:26.490Z,0.87
2019-06-01T08:12:56.473Z,1.03
2019-06-01T08:15:25.699Z,1.67
2019-06-01T08:17:54.936Z,1.13
2019-06-01T08:20:24.042Z,0.83
2019-06-01T08:22:53.143Z,0.97
2019-06-01T08:25:22.207Z,1.77
2019-06-01T08:27:51.110Z,0.90
2019-06-01T08:30:20.136Z,0.83
2019-06-01T08:32:49.064Z,1.03
2019-06-01T08:35:19.134Z,0.60
2019-06-01T08:37:48.062Z,0.97
2019-06-01T08:40:17.418Z,0.70
2019-06-01T08:42:46.368Z,1.03
2019-06-01T08:45:16.261Z,0.70
2019-06-01T08:47:45.249Z,0.70
2019-06-01T08:50:14.824Z,0.70
2019-06-01T08:52:43.870Z,1.23
2019-06-01T08:55:13.069Z,1.60
2019-06-01T08:57:42.015Z,0.90
2019-06-01T09:00:11.812Z,0.80
2019-06-01T09:02:53.022Z,1.03
2019-06-01T09:05:24.935Z,0.73
2019-06-01T09:07:52.553Z,1.60
2019-06-01T09:10:21.507Z,1.10
2019-06-01T09:12:52.982Z,1.03
2019-06-01T09:15:21.896Z,1.30
2019-06-01T09:17:50.858Z,1.00
2019-06-01T09:20:19.817Z,1.07
2019-06-01T09:22:48.711Z,0.97
2019-06-01T09:25:17.765Z,0.83
2019-06-01T09:27:46.755Z,1.23
2019-06-01T09:30:15.862Z,0.50
2019-06-01T09:32:44.754Z,0.90
2019-06-01T09:35:13.908Z,0.50
2019-06-01T09:37:45.714Z,0.73
2019-06-01T09:40:14.245Z,0.90
2019-06-01T09:42:43.361Z,0.90
2019-06-01T09:45:12.353Z,0.60
2019-06-01T09:47:41.242Z,1.47
2019-06-01T09:50:10.466Z,1.33
2019-06-01T09:52:39.331Z,1.00
2019-06-01T09:55:10.219Z,1.00
2019-06-01T09:57:39.173Z,1.10
2019-06-01T10:00:10.430Z,1.03
2019-06-01T10:02:40.355Z,0.97
2019-06-01T10:05:09.362Z,0.83
2019-06-01T10:07:39.401Z,0.87
2019-06-01T10:12:59.414Z,2.23
2019-06-01T10:15:28.423Z,1.67
2019-06-01T10:17:57.348Z,2.13
2019-06-01T10:20:26.249Z,1.53
2019-06-01T10:22:55.169Z,0.87
2019-06-01T10:25:24.063Z,1.77
2019-06-01T10:28:11.878Z,1.77
2019-06-01T10:30:28.501Z,1.47
2019-06-01T10:32:57.407Z,1.70
2019-06-01T10:35:26.412Z,1.40
2019-06-01T10:37:55.312Z,1.27
2019-06-01T10:40:24.239Z,1.30
2019-06-01T10:42:53.137Z,1.80
2019-06-01T10:45:22.169Z,0.70
2019-06-01T10:47:51.072Z,1.10
2019-06-01T10:50:19.929Z,1.27
2019-06-01T10:52:48.863Z,0.90
2019-06-01T10:55:17.742Z,1.30
2019-06-01T10:57:46.647Z,0.83
2019-06-01T11:00:15.870Z,1.10
2019-06-01T11:02:44.779Z,1.03
2019-06-01T11:05:13.840Z,0.83
2019-06-01T11:07:43.109Z,0.83
2019-06-01T11:10:12.714Z,1.20
2019-06-01T11:12:41.617Z,1.20
2019-06-01T11:15:11.151Z,1.10
2019-06-01T11:17:41.111Z,0.73
2019-06-01T11:20:11.810Z,1.27
2019-06-01T11:22:41.562Z,0.87
2019-06-01T11:25:11.071Z,0.90
2019-06-01T11:27:40.014Z,1.37
2019-06-01T11:30:10.260Z,1.20
2019-06-01T11:32:41.249Z,0.80
2019-06-01T11:35:11.162Z,1.03
2019-06-01T11:37:40.501Z,0.90
2019-06-01T11:40:10.807Z,1.00
2019-06-01T11:42:40.879Z,0.80
2019-06-01T11:45:10.574Z,1.17
2019-06-01T11:47:39.744Z,1.50
2019-06-01T11:50:09.934Z,1.77
2019-06-01T11:52:39.214Z,1.30
2019-06-01T11:55:08.858Z,1.53
2019-06-01T11:57:37.737Z,1.23
2019-06-01T12:00:14.216Z,1.00
2019-06-01T12:02:43.830Z,1.53
2019-06-01T12:05:15.547Z,1.00
2019-06-01T12:07:44.444Z,1.07
2019-06-01T12:10:13.877Z,0.90
2019-06-01T12:12:44.190Z,1.20
2019-06-01T12:15:13.939Z,1.47
2019-06-01T12:17:42.951Z,1.50
2019-06-01T12:20:12.218Z,1.70
2019-06-01T12:22:41.095Z,1.30
2019-06-01T12:25:10.858Z,1.53
2019-06-01T12:27:39.820Z,0.97
2019-06-01T12:30:09.308Z,1.93
2019-06-01T12:32:38.321Z,1.77
2019-06-01T12:35:08.767Z,2.07
2019-06-01T12:37:56.014Z,1.10
2019-06-01T12:40:08.648Z,1.90
2019-06-01T12:42:37.584Z,1.37
2019-06-01T12:45:15.965Z,2.00
2019-06-01T12:47:48.312Z,1.10
2019-06-01T12:50:15.469Z,1.33
2019-06-01T12:52:44.474Z,1.13
2019-06-01T12:55:13.496Z,0.93
2019-06-01T12:57:42.909Z,1.30
2019-06-01T13:00:12.319Z,0.73
2019-06-01T13:02:44.866Z,1.17
2019-06-01T13:05:12.114Z,1.53
2019-06-01T13:07:52.111Z,1.40
2019-06-01T13:10:12.176Z,1.00
2019-06-01T13:12:41.411Z,1.60
2019-06-01T13:15:10.500Z,1.03
2019-06-01T13:17:39.434Z,0.77
2019-06-01T13:20:08.436Z,1.00
2019-06-01T13:22:37.291Z,2.17
2019-06-01T13:25:07.884Z,0.70
2019-06-01T13:27:40.672Z,0.97
2019-06-01T13:30:08.555Z,1.77
2019-06-01T13:32:37.460Z,1.37
2019-06-01T13:35:07.970Z,1.40
2019-06-01T13:37:36.846Z,0.97
2019-06-01T13:40:07.066Z,1.37
2019-06-01T13:42:35.955Z,1.97
2019-06-01T13:45:09.244Z,1.20
2019-06-01T13:47:38.131Z,1.70
2019-06-01T13:50:07.313Z,1.20
2019-06-01T13:52:36.299Z,1.80
2019-06-01T13:55:07.072Z,1.90
2019-06-01T13:57:39.306Z,1.30
2019-06-01T14:00:08.124Z,1.40
2019-06-01T14:02:37.218Z,0.70
2019-06-01T14:05:07.749Z,1.67
2019-06-01T14:07:36.664Z,1.30
2019-06-01T14:10:08.420Z,2.17
2019-06-01T14:12:37.553Z,1.13
2019-06-01T14:15:09.636Z,1.50
2019-06-01T14:17:38.549Z,0.90
2019-06-01T14:20:08.624Z,1.30
2019-06-01T14:22:47.650Z,1.00
2019-06-01T14:25:17.000Z,1.33
2019-06-01T14:27:46.128Z,0.93
2019-06-01T14:30:15.174Z,1.63
2019-06-01T14:32:44.016Z,1.37
2019-06-01T14:35:12.922Z,1.50
2019-06-01T14:37:41.796Z,0.80
2019-06-01T14:40:11.524Z,1.20
2019-06-01T14:42:40.590Z,2.30
2019-06-01T14:45:12.935Z,1.27
2019-06-01T14:47:41.751Z,1.80
2019-06-01T14:50:10.903Z,1.20
2019-06-01T14:52:39.774Z,2.00
2019-06-01T14:55:08.997Z,2.20
2019-06-01T14:57:37.929Z,2.37
2019-06-01T15:00:09.510Z,2.10
2019-06-01T15:02:38.341Z,1.50
2019-06-01T15:05:08.884Z,2.03
2019-06-01T15:07:37.760Z,2.03
2019-06-01T15:10:08.216Z,2.17
2019-06-01T15:12:37.129Z,3.00
2019-06-01T15:15:08.111Z,1.70
2019-06-01T15:17:36.992Z,2.13
2019-06-01T15:20:08.489Z,1.93
2019-06-01T15:22:37.351Z,1.87
2019-06-01T15:25:07.940Z,2.13
2019-06-01T15:27:36.935Z,2.10
2019-06-01T15:30:07.864Z,1.57
2019-06-01T15:32:37.069Z,1.80
2019-06-01T15:35:08.072Z,2.07
2019-06-01T15:37:37.112Z,2.70
2019-06-01T15:40:07.954Z,2.40
2019-06-01T15:42:37.104Z,1.93
2019-06-01T15:45:08.354Z,1.80
2019-06-01T15:47:40.875Z,1.90
2019-06-01T15:50:10.596Z,2.33
2019-06-01T15:52:39.698Z,1.80
2019-06-01T15:55:09.386Z,1.67
2019-06-01T15:57:38.322Z,1.60
2019-06-01T16:00:08.684Z,1.40
2019-06-01T16:02:39.087Z,1.60
2019-06-01T16:05:08.804Z,1.93
2019-06-01T16:07:37.773Z,2.20
2019-06-01T16:10:08.365Z,2.07
2019-06-01T16:12:38.500Z,1.77
2019-06-01T16:15:08.995Z,1.80
2019-06-01T16:17:37.873Z,1.60
2019-06-01T16:20:08.600Z,1.87
2019-06-01T16:22:37.863Z,1.73
2019-06-01T16:25:10.028Z,1.20
2019-06-01T16:27:38.990Z,2.47
2019-06-01T16:30:12.166Z,1.33
2019-06-01T16:32:42.615Z,1.83
2019-06-01T16:35:11.643Z,1.90
2019-06-01T16:37:43.284Z,1.23
2019-06-01T16:40:14.154Z,2.37
2019-06-01T16:42:43.082Z,2.80
2019-06-01T16:45:12.955Z,1.93
2019-06-01T16:47:41.818Z,1.60
2019-06-01T16:50:11.894Z,2.00
2019-06-01T16:52:40.769Z,2.40
2019-06-01T16:55:11.720Z,1.80
2019-06-01T16:57:40.661Z,2.33
2019-06-01T17:00:11.896Z,2.03
2019-06-01T17:02:40.761Z,1.33
2019-06-01T17:05:10.196Z,2.17
2019-06-01T17:07:39.044Z,1.33
2019-06-01T17:10:25.096Z,1.53
2019-06-01T17:12:43.657Z,1.60
2019-06-01T17:15:20.899Z,1.37
2019-06-01T17:17:50.201Z,1.40
2019-06-01T17:20:39.035Z,1.47
2019-06-01T17:23:24.384Z,1.03
2019-06-01T17:25:44.440Z,2.07
2019-06-01T17:28:21.040Z,1.20
2019-06-01T17:30:50.030Z,1.30
2019-06-01T17:33:19.014Z,1.77
2019-06-01T17:35:47.946Z,1.70
2019-06-01T17:38:16.817Z,2.10
2019-06-01T17:40:45.678Z,1.83
2019-06-01T17:43:14.647Z,1.40
2019-06-01T17:45:43.590Z,1.07
2019-06-01T17:48:24.665Z,1.20
2019-06-01T17:50:43.207Z,1.30
2019-06-01T17:53:13.006Z,1.00
2019-06-01T17:55:42.304Z,1.37
2019-06-01T17:58:12.537Z,1.17
2019-06-01T18:00:42.165Z,1.10
2019-06-01T18:03:12.100Z,1.13
2019-06-01T18:05:41.324Z,1.03
2019-06-01T18:08:10.441Z,1.40
2019-06-01T18:10:53.141Z,1.00
2019-06-01T18:13:12.703Z,1.27
2019-06-01T18:15:41.679Z,1.20
2019-06-01T18:18:10.655Z,1.23
2019-06-01T18:20:39.613Z,1.10
2019-06-01T18:23:10.127Z,0.93
2019-06-01T18:25:39.010Z,0.90
2019-06-01T18:28:14.673Z,1.03
2019-06-01T18:30:38.653Z,0.90
2019-06-01T18:33:11.217Z,1.77
2019-06-01T18:35:40.282Z,1.10
2019-06-01T18:38:09.842Z,1.03
2019-06-01T18:40:38.905Z,1.37
2019-06-01T18:43:11.945Z,1.00
2019-06-01T18:45:41.154Z,1.20
2019-06-01T18:48:10.262Z,1.20
2019-06-01T18:50:42.298Z,1.60
2019-06-01T18:53:15.123Z,1.23
2019-06-01T18:55:44.009Z,1.40
2019-06-01T18:58:14.671Z,1.67
2019-06-01T19:00:43.802Z,2.07
2019-06-01T19:03:13.666Z,1.33
2019-06-01T19:05:50.453Z,2.00
2019-06-01T19:08:19.066Z,2.00
2019-06-01T19:10:51.126Z,1.40
2019-06-01T19:13:20.160Z,1.53
2019-06-01T19:15:48.991Z,1.40
2019-06-01T19:18:17.976Z,2.20
2019-06-01T19:20:59.404Z,1.60
2019-06-01T19:23:24.084Z,2.53
2019-06-01T19:25:53.006Z,2.50
2019-06-01T19:28:21.874Z,1.97
2019-06-01T19:30:51.274Z,1.60
2019-06-01T19:33:20.151Z,2.40
2019-06-01T19:35:49.718Z,2.17
2019-06-01T19:38:20.175Z,2.67
2019-06-01T19:40:49.090Z,1.97
2019-06-01T19:43:17.959Z,2.67
2019-06-01T19:45:47.085Z,2.00
2019-06-01T19:48:16.503Z,2.20
2019-06-01T19:50:45.626Z,1.80
2019-06-01T19:53:14.786Z,2.03
2019-06-01T19:55:43.858Z,2.07
2019-06-01T19:58:18.827Z,2.20
2019-06-01T20:00:47.551Z,1.70
2019-06-01T20:03:19.967Z,2.93
2019-06-01T20:05:46.972Z,2.23
2019-06-01T20:08:16.179Z,3.13
2019-06-01T20:10:45.287Z,2.23
2019-06-01T20:13:15.142Z,2.80
2019-06-01T20:15:44.168Z,2.23
2019-06-01T20:18:13.081Z,1.97
2019-06-01T20:20:42.031Z,2.40
2019-06-01T20:23:11.301Z,2.47
2019-06-01T20:25:40.208Z,1.83
2019-06-01T20:30:56.875Z,3.77
2019-06-01T20:33:25.752Z,1.80
2019-06-01T20:35:54.689Z,3.10
2019-06-01T20:38:23.588Z,2.17
2019-06-01T20:40:54.018Z,2.43
2019-06-01T20:43:23.000Z,1.47
2019-06-01T20:45:51.933Z,1.60
2019-06-01T20:48:21.011Z,1.63
2019-06-01T20:50:50.021Z,1.77
2019-06-01T20:53:19.000Z,1.70
2019-06-01T20:55:47.938Z,1.67
2019-06-01T20:58:18.735Z,1.60
2019-06-01T21:00:47.322Z,1.93
2019-06-01T21:03:16.244Z,2.23
2019-06-01T21:05:45.117Z,2.47
2019-06-01T21:08:14.121Z,2.23
2019-06-01T21:10:43.120Z,2.17
2019-06-01T21:13:12.001Z,1.60
2019-06-01T21:15:40.861Z,2.20
2019-06-01T21:18:10.264Z,1.60
2019-06-01T21:20:39.202Z,1.83
2019-06-01T21:23:08.097Z,2.00
2019-06-01T21:25:38.551Z,2.27
2019-06-01T21:28:07.826Z,1.90
2019-06-01T21:30:36.700Z,2.73
2019-06-01T21:33:05.647Z,2.70
2019-06-01T21:35:36.224Z,2.10
2019-06-01T21:38:05.186Z,1.87
2019-06-01T21:40:34.154Z,2.13
2019-06-01T21:43:20.234Z,2.07
2019-06-01T21:45:33.963Z,1.70
2019-06-01T21:48:03.009Z,3.37
2019-06-01T21:50:31.864Z,1.70
2019-06-01T21:53:00.814Z,1.47
2019-06-01T21:55:29.694Z,2.03
2019-06-01T21:57:58.549Z,2.07
2019-06-01T22:00:31.939Z,1.80
2019-06-01T22:03:00.866Z,2.20
2019-06-01T22:05:30.919Z,2.00
2019-06-01T22:07:59.875Z,1.90
2019-06-01T22:10:28.752Z,1.53
2019-06-01T22:12:57.616Z,1.80
2019-06-01T22:15:26.484Z,2.33
2019-06-01T22:17:55.604Z,1.50
2019-06-01T22:20:25.939Z,2.63
2019-06-01T22:22:55.129Z,1.97
2019-06-01T22:25:24.100Z,1.67
2019-06-01T22:27:53.195Z,1.83
2019-06-01T22:30:22.373Z,1.90
2019-06-01T22:32:54.578Z,1.63
2019-06-01T22:35:24.651Z,1.93
2019-06-01T22:37:53.885Z,1.47
2019-06-01T22:40:23.004Z,2.13
2019-06-01T22:42:53.717Z,1.60
2019-06-01T22:45:24.765Z,1.50
2019-06-01T22:48:00.954Z,2.27
2019-06-01T22:50:33.192Z,1.40
2019-06-01T22:53:10.354Z,2.03
2019-06-01T22:55:39.335Z,1.60
2019-06-01T22:58:11.302Z,1.90
2019-06-01T23:00:40.758Z,2.03
2019-06-01T23:03:09.932Z,1.77
2019-06-01T23:05:42.564Z,1.23
2019-06-01T23:08:12.068Z,1.70
2019-06-01T23:10:43.236Z,1.87
2019-06-01T23:13:16.859Z,1.60
2019-06-01T23:15:50.573Z,1.93
2019-06-01T23:18:21.697Z,1.63
2019-06-01T23:20:52.461Z,1.30
2019-06-01T23:23:24.011Z,2.87
2019-06-01T23:28:45.129Z,2.37
2019-06-01T23:31:17.721Z,1.13
2019-06-01T23:33:47.092Z,2.27
2019-06-01T23:36:15.971Z,2.20
2019-06-01T23:38:44.880Z,1.77
2019-06-01T23:41:13.781Z,1.70
2019-06-01T23:43:47.407Z,1.83
2019-06-01T23:46:16.292Z,2.03
2019-06-01T23:48:49.596Z,1.70
2019-06-01T23:51:18.831Z,2.30
2019-06-01T23:53:50.507Z,2.30
2019-06-01T23:56:19.446Z,1.97
2019-06-01T23:58:48.295Z,1.70
